createdAt,value
2024-02-22T00:01:43.548Z,98326.34
2024-02-22T00:04:10.376Z,98330.84
2024-02-22T00:06:39.617Z,98317.63
2024-02-22T00:09:06.423Z,98324.59
2024-02-22T00:11:33.460Z,98318.28
2024-02-22T00:14:00.412Z,98310.59
2024-02-22T00:16:27.359Z,98314.69
2024-02-22T00:18:54.634Z,98309.13
2024-02-22T00:21:21.404Z,98314.75
2024-02-22T00:23:49.150Z,98306.47
2024-02-22T00:26:16.122Z,98299.59
2024-02-22T00:28:43.551Z,98293.81
2024-02-22T00:31:10.367Z,98288.19
2024-02-22T00:33:37.228Z,98283.38
2024-02-22T00:36:04.306Z,98278.50
2024-02-22T00:38:31.109Z,98266.63
2024-02-22T00:40:57.910Z,98264.72
2024-02-22T00:43:24.727Z,98256.09
2024-02-22T00:45:51.510Z,98244.84
2024-02-22T00:48:18.550Z,98262.81
2024-02-22T00:50:45.536Z,98256.44
2024-02-22T00:53:12.656Z,98245.84
2024-02-22T00:55:40.514Z,98248.56
2024-02-22T00:58:10.511Z,98249.56
2024-02-22T01:00:37.766Z,98246.97
2024-02-22T01:03:06.210Z,98237.66
2024-02-22T01:05:33.581Z,98235.13
2024-02-22T01:08:01.137Z,98233.66
2024-02-22T01:10:28.073Z,98218.00
2024-02-22T01:12:55.021Z,98221.69
2024-02-22T01:15:21.795Z,98218.13
2024-02-22T01:17:48.703Z,98220.00
2024-02-22T01:20:15.791Z,98205.38
2024-02-22T01:22:42.651Z,98201.06
2024-02-22T01:25:10.703Z,98192.06
2024-02-22T01:27:37.659Z,98207.78
2024-02-22T01:30:05.509Z,98204.06
2024-02-22T01:32:32.380Z,98191.25
2024-02-22T01:34:59.235Z,98194.41
2024-02-22T01:37:25.993Z,98180.84
2024-02-22T01:39:52.733Z,98182.47
2024-02-22T01:42:19.485Z,98176.00
2024-02-22T01:44:46.744Z,98166.78
2024-02-22T01:47:14.549Z,98167.47
2024-02-22T01:49:41.676Z,98161.75
2024-02-22T01:52:10.027Z,98161.88
2024-02-22T01:54:37.181Z,98161.69
2024-02-22T01:57:05.370Z,98150.63
2024-02-22T01:59:33.068Z,98127.91
2024-02-22T02:02:00.918Z,98132.50
2024-02-22T02:04:30.425Z,98125.34
2024-02-22T02:06:57.238Z,98128.06
2024-02-22T02:09:24.110Z,98109.38
2024-02-22T02:11:50.944Z,98114.97
2024-02-22T02:14:17.865Z,98110.38
2024-02-22T02:16:44.693Z,98118.22
2024-02-22T02:19:18.192Z,98093.09
2024-02-22T02:22:06.281Z,98089.34
2024-02-22T02:24:42.399Z,98093.34
2024-02-22T02:27:09.212Z,98081.59
2024-02-22T02:29:35.972Z,98075.56
2024-02-22T02:32:02.889Z,98071.97
2024-02-22T02:34:29.967Z,98055.81
2024-02-22T02:36:56.809Z,98048.28
2024-02-22T02:39:23.587Z,98061.38
2024-02-22T02:41:50.397Z,98042.94
2024-02-22T02:44:17.176Z,98057.13
2024-02-22T02:46:44.014Z,98047.78
2024-02-22T02:49:10.874Z,98042.47
2024-02-22T02:51:37.647Z,98038.63
2024-02-22T02:54:04.743Z,98028.22
2024-02-22T02:56:33.162Z,98029.41
2024-02-22T02:59:00.524Z,98021.44
2024-02-22T03:01:27.467Z,98015.28
2024-02-22T03:03:54.336Z,98015.97
2024-02-22T03:06:21.160Z,98019.94
2024-02-22T03:08:47.958Z,98018.78
2024-02-22T03:11:14.873Z,98008.16
2024-02-22T03:13:42.033Z,98008.72
2024-02-22T03:16:08.900Z,97998.59
2024-02-22T03:18:35.770Z,97993.28
2024-02-22T03:21:02.681Z,97992.94
2024-02-22T03:23:29.472Z,97987.19
2024-02-22T03:25:57.144Z,97985.97
2024-02-22T03:28:23.992Z,97980.34
2024-02-22T03:30:53.514Z,97984.34
2024-02-22T03:33:20.569Z,97981.88
2024-02-22T03:35:47.304Z,97972.72
2024-02-22T03:38:14.122Z,97971.00
2024-02-22T03:40:41.320Z,97971.34
2024-02-22T03:43:08.602Z,97964.97
2024-02-22T03:45:35.486Z,97955.47
2024-02-22T03:48:02.355Z,97960.09
2024-02-22T03:50:29.135Z,97964.31
2024-02-22T03:52:56.055Z,97962.19
2024-02-22T03:55:22.859Z,97958.06
2024-02-22T03:57:49.716Z,97963.47
2024-02-22T04:00:17.065Z,97941.13
2024-02-22T04:02:48.087Z,97955.38
2024-02-22T04:05:16.308Z,97961.19
2024-02-22T04:07:43.481Z,97954.53
2024-02-22T04:10:10.741Z,97959.16
2024-02-22T04:12:37.759Z,97948.53
2024-02-22T04:15:04.969Z,97954.25
2024-02-22T04:17:31.664Z,97949.53
2024-02-22T04:19:58.525Z,97942.03
2024-02-22T04:22:25.912Z,97954.09
2024-02-22T04:24:52.571Z,97949.84
2024-02-22T04:27:19.342Z,97951.06
2024-02-22T04:29:46.092Z,97939.50
2024-02-22T04:32:12.883Z,97927.69
2024-02-22T04:34:39.766Z,97934.84
2024-02-22T04:37:07.416Z,97949.50
2024-02-22T04:39:34.168Z,97937.00
2024-02-22T04:42:00.948Z,97933.13
2024-02-22T04:44:27.697Z,97922.75
2024-02-22T04:46:54.562Z,97926.16
2024-02-22T04:49:21.390Z,97919.28
2024-02-22T04:51:48.895Z,97917.31
2024-02-22T04:54:16.446Z,97911.78
2024-02-22T04:56:43.201Z,97902.91
2024-02-22T04:59:09.968Z,97913.88
2024-02-22T05:01:40.937Z,97912.16
2024-02-22T05:04:09.472Z,97907.72
2024-02-22T05:06:36.945Z,97905.78
2024-02-22T05:09:03.817Z,97908.31
2024-02-22T05:11:30.678Z,97892.47
2024-02-22T05:13:58.973Z,97888.25
2024-02-22T05:16:25.825Z,97884.75
2024-02-22T05:18:53.523Z,97886.19
2024-02-22T05:21:20.458Z,97893.66
2024-02-22T05:23:47.776Z,97890.09
2024-02-22T05:26:14.780Z,97876.66
2024-02-22T05:28:41.678Z,97848.19
2024-02-22T05:31:21.997Z,97858.06
2024-02-22T05:33:48.771Z,97861.53
2024-02-22T05:36:17.108Z,97865.41
2024-02-22T05:38:43.844Z,97867.47
2024-02-22T05:41:10.778Z,97868.47
2024-02-22T05:43:37.610Z,97851.06
2024-02-22T05:46:04.488Z,97847.34
2024-02-22T05:48:31.354Z,97839.94
2024-02-22T05:50:58.309Z,97841.63
2024-02-22T05:53:25.113Z,97834.66
2024-02-22T05:55:51.927Z,97837.53
2024-02-22T05:58:19.007Z,97844.56
2024-02-22T06:00:46.532Z,97840.66
2024-02-22T06:03:13.584Z,97836.97
2024-02-22T06:05:40.594Z,97835.34
2024-02-22T06:08:07.785Z,97812.78
2024-02-22T06:10:34.495Z,97812.66
2024-02-22T06:13:01.926Z,97817.53
2024-02-22T06:15:28.679Z,97810.81
2024-02-22T06:17:55.565Z,97797.75
2024-02-22T06:20:22.944Z,97805.47
2024-02-22T06:22:49.817Z,97798.59
2024-02-22T06:25:16.857Z,97805.22
2024-02-22T06:27:44.180Z,97807.22
2024-02-22T06:30:11.861Z,97816.78
2024-02-22T06:32:38.721Z,97816.44
2024-02-22T06:35:08.108Z,97809.53
2024-02-22T06:37:35.068Z,97804.75
2024-02-22T06:40:02.447Z,97804.59
2024-02-22T06:42:29.726Z,97797.63
2024-02-22T06:44:56.977Z,97801.84
2024-02-22T06:47:24.408Z,97799.25
2024-02-22T06:49:51.351Z,97799.09
2024-02-22T06:52:18.333Z,97790.16
2024-02-22T06:54:45.073Z,97780.06
2024-02-22T06:57:11.876Z,97773.25
2024-02-22T06:59:38.601Z,97758.09
2024-02-22T07:02:06.578Z,97756.63
2024-02-22T07:04:33.633Z,97758.72
2024-02-22T07:07:00.810Z,97765.66
2024-02-22T07:09:27.618Z,97764.44
2024-02-22T07:11:58.646Z,97754.84
2024-02-22T07:14:25.684Z,97762.16
2024-02-22T07:16:52.565Z,97749.53
2024-02-22T07:19:20.085Z,97742.78
2024-02-22T07:21:46.901Z,97751.31
2024-02-22T07:24:13.710Z,97759.00
2024-02-22T07:26:40.445Z,97758.97
2024-02-22T07:29:11.097Z,97765.88
2024-02-22T07:31:39.060Z,97753.75
2024-02-22T07:34:05.936Z,97740.31
2024-02-22T07:36:32.757Z,97727.03
2024-02-22T07:39:00.066Z,97721.75
2024-02-22T07:41:26.701Z,97725.78
2024-02-22T07:43:53.496Z,97726.31
2024-02-22T07:46:20.328Z,97719.72
2024-02-22T07:48:47.263Z,97705.41
2024-02-22T07:51:14.000Z,97705.56
2024-02-22T07:53:42.656Z,97706.03
2024-02-22T07:56:09.663Z,97698.94
2024-02-22T07:58:46.861Z,97697.84
2024-02-22T08:01:14.457Z,97707.75
2024-02-22T08:03:43.288Z,97696.41
2024-02-22T08:06:13.799Z,97689.03
2024-02-22T08:08:41.681Z,97698.22
2024-02-22T08:11:09.796Z,97699.59
2024-02-22T08:13:36.891Z,97692.66
2024-02-22T08:16:09.039Z,97696.00
2024-02-22T08:18:37.314Z,97685.72
2024-02-22T08:21:04.970Z,97691.66
2024-02-22T08:23:31.957Z,97677.13
2024-02-22T08:25:59.325Z,97673.91
2024-02-22T08:28:27.664Z,97670.72
2024-02-22T08:30:54.650Z,97674.50
2024-02-22T08:33:25.030Z,97673.84
2024-02-22T08:35:52.359Z,97671.31
2024-02-22T08:38:19.267Z,97661.41
2024-02-22T08:40:46.096Z,97666.06
2024-02-22T08:43:12.870Z,97669.09
2024-02-22T08:45:39.669Z,97660.16
2024-02-22T08:48:07.076Z,97652.47
2024-02-22T08:50:34.043Z,97660.44
2024-02-22T08:53:01.052Z,97661.81
2024-02-22T08:55:27.824Z,97658.13
2024-02-22T08:57:56.173Z,97649.25
2024-02-22T09:00:24.905Z,97649.88
2024-02-22T09:02:52.531Z,97657.59
2024-02-22T09:05:20.678Z,97658.16
2024-02-22T09:07:51.820Z,97650.25
2024-02-22T09:10:19.055Z,97653.84
2024-02-22T09:12:46.072Z,97634.66
2024-02-22T09:15:13.181Z,97631.69
2024-02-22T09:17:40.045Z,97641.16
2024-02-22T09:20:07.555Z,97635.47
2024-02-22T09:22:34.491Z,97633.78
2024-02-22T09:25:01.759Z,97640.06
2024-02-22T09:27:30.333Z,97633.19
2024-02-22T09:29:59.416Z,97629.41
2024-02-22T09:32:26.444Z,97639.53
2024-02-22T09:34:53.970Z,97626.06
2024-02-22T09:37:23.901Z,97620.09
2024-02-22T09:39:52.139Z,97627.31
2024-02-22T09:42:19.966Z,97613.13
2024-02-22T09:44:47.891Z,97620.41
2024-02-22T09:47:16.768Z,97611.56
2024-02-22T09:49:44.320Z,97609.69
2024-02-22T09:52:13.856Z,97621.50
2024-02-22T09:54:40.960Z,97615.16
2024-02-22T09:57:07.788Z,97625.69
2024-02-22T09:59:35.284Z,97625.66
2024-02-22T10:02:07.365Z,97626.47
2024-02-22T10:04:34.476Z,97628.78
2024-02-22T10:07:02.493Z,97624.53
2024-02-22T10:09:30.676Z,97626.53
2024-02-22T10:11:57.801Z,97626.56
2024-02-22T10:14:26.182Z,97626.34
2024-02-22T10:16:53.365Z,97621.25
2024-02-22T10:19:20.063Z,97621.63
2024-02-22T10:21:47.961Z,97619.56
2024-02-22T10:24:15.218Z,97627.66
2024-02-22T10:26:42.399Z,97634.75
2024-02-22T10:29:14.578Z,97625.69
2024-02-22T10:31:49.899Z,97618.25
2024-02-22T10:37:05.577Z,97615.00
2024-02-22T10:39:33.346Z,97619.22
2024-02-22T10:42:00.306Z,97622.75
2024-02-22T10:44:27.043Z,97612.97
2024-02-22T10:46:54.439Z,97603.50
2024-02-22T10:49:24.739Z,97619.03
2024-02-22T10:51:53.785Z,97616.41
2024-02-22T10:54:20.781Z,97618.00
2024-02-22T10:56:50.182Z,97580.84
2024-02-22T10:59:21.830Z,97610.16
2024-02-22T11:01:52.030Z,97617.19
2024-02-22T11:04:19.278Z,97607.06
2024-02-22T11:06:49.573Z,97590.91
2024-02-22T11:09:21.537Z,97606.25
2024-02-22T11:11:50.044Z,97602.03
2024-02-22T11:14:30.373Z,97610.59
2024-02-22T11:17:00.623Z,97591.38
2024-02-22T11:19:28.031Z,97586.19
2024-02-22T11:21:54.886Z,97597.97
2024-02-22T11:24:24.396Z,97573.34
2024-02-22T11:26:53.720Z,97620.69
2024-02-22T11:29:28.309Z,97612.16
2024-02-22T11:31:55.730Z,97608.16
2024-02-22T11:34:23.078Z,97601.84
2024-02-22T11:36:49.868Z,97603.00
2024-02-22T11:39:19.843Z,97605.22
2024-02-22T11:41:50.289Z,97603.19
2024-02-22T11:44:17.906Z,97617.91
2024-02-22T11:46:45.506Z,97607.47
2024-02-22T11:49:12.560Z,97599.69
2024-02-22T11:51:41.386Z,97578.44
2024-02-22T11:54:08.468Z,97564.88
2024-02-22T11:56:36.025Z,97600.78
2024-02-22T11:59:04.182Z,97607.94
2024-02-22T12:01:32.877Z,97611.97
2024-02-22T12:04:00.268Z,97603.31
2024-02-22T12:06:27.800Z,97588.75
2024-02-22T12:08:55.289Z,97586.53
2024-02-22T12:11:23.201Z,97575.50
2024-02-22T12:13:57.448Z,97594.25
2024-02-22T12:16:24.800Z,97576.91
2024-02-22T12:18:52.538Z,97584.44
2024-02-22T12:21:24.178Z,97578.44
2024-02-22T12:23:51.322Z,97577.03
2024-02-22T12:26:18.798Z,97580.78
2024-02-22T12:28:55.469Z,97565.28
2024-02-22T12:31:23.216Z,97540.56
2024-02-22T12:33:52.161Z,97555.34
2024-02-22T12:36:19.980Z,97539.16
2024-02-22T12:38:47.019Z,97541.78
2024-02-22T12:41:18.888Z,97528.91
2024-02-22T12:43:51.679Z,97529.84
2024-02-22T12:46:18.701Z,97523.81
2024-02-22T12:48:45.835Z,97507.78
2024-02-22T12:51:12.934Z,97519.38
2024-02-22T12:53:40.787Z,97502.72
2024-02-22T12:56:08.284Z,97505.66
2024-02-22T12:58:35.228Z,97495.81
2024-02-22T13:01:03.775Z,97490.69
2024-02-22T13:03:31.408Z,97484.69
2024-02-22T13:05:58.748Z,97481.41
2024-02-22T13:08:30.833Z,97477.66
2024-02-22T13:10:59.906Z,97461.34
2024-02-22T13:13:26.919Z,97453.66
2024-02-22T13:15:53.644Z,97444.44
2024-02-22T13:18:21.503Z,97436.28
2024-02-22T13:20:48.959Z,97420.59
2024-02-22T13:23:15.815Z,97411.09
2024-02-22T13:25:42.698Z,97409.44
2024-02-22T13:28:09.515Z,97412.41
2024-02-22T13:30:36.524Z,97405.81
2024-02-22T13:33:04.299Z,97386.03
2024-02-22T13:35:31.224Z,97386.06
2024-02-22T13:37:59.017Z,97379.63
2024-02-22T13:40:28.970Z,97383.91
2024-02-22T13:42:56.475Z,97369.25
2024-02-22T13:45:23.218Z,97368.06
2024-02-22T13:47:50.008Z,97378.50
2024-02-22T13:50:17.859Z,97368.28
2024-02-22T13:52:45.431Z,97381.13
2024-02-22T13:55:12.917Z,97377.44
2024-02-22T13:57:39.909Z,97371.34
2024-02-22T14:00:08.176Z,97366.00
2024-02-22T14:02:39.508Z,97368.63
2024-02-22T14:05:06.522Z,97377.34
2024-02-22T14:07:33.563Z,97375.75
2024-02-22T14:10:01.739Z,97374.97
2024-02-22T14:12:29.230Z,97378.09
2024-02-22T14:14:56.052Z,97384.78
2024-02-22T14:17:26.174Z,97381.34
2024-02-22T14:19:53.608Z,97383.34
2024-02-22T14:22:20.649Z,97374.69
2024-02-22T14:24:47.484Z,97374.84
2024-02-22T14:27:14.880Z,97371.66
2024-02-22T14:29:44.581Z,97373.19
2024-02-22T14:32:13.671Z,97359.47
2024-02-22T14:34:41.856Z,97344.47
2024-02-22T14:37:12.831Z,97350.16
2024-02-22T14:39:39.965Z,97345.81
2024-02-22T14:42:06.933Z,97347.38
2024-02-22T14:44:33.902Z,97343.19
2024-02-22T14:47:04.023Z,97331.19
2024-02-22T14:49:31.236Z,97318.38
2024-02-22T14:51:58.029Z,97314.28
2024-02-22T14:54:24.815Z,97316.53
2024-02-22T14:56:51.785Z,97306.03
2024-02-22T14:59:20.167Z,97307.38
2024-02-22T15:01:47.257Z,97297.28
2024-02-22T15:04:14.145Z,97287.19
2024-02-22T15:06:46.492Z,97287.69
2024-02-22T15:09:17.505Z,97269.88
2024-02-22T15:11:45.792Z,97284.47
2024-02-22T15:14:13.402Z,97276.78
2024-02-22T15:16:41.969Z,97271.06
2024-02-22T15:19:09.195Z,97266.97
2024-02-22T15:21:35.869Z,97268.78
2024-02-22T15:24:02.727Z,97255.13
2024-02-22T15:26:30.211Z,97245.66
2024-02-22T15:28:57.057Z,97248.44
2024-02-22T15:31:23.871Z,97254.00
2024-02-22T15:33:57.908Z,97241.69
2024-02-22T15:36:30.912Z,97254.03
2024-02-22T15:38:58.362Z,97244.53
2024-02-22T15:41:25.732Z,97255.28
2024-02-22T15:43:55.832Z,97251.78
2024-02-22T15:46:23.495Z,97250.06
2024-02-22T15:48:52.818Z,97243.47
2024-02-22T15:51:20.647Z,97234.22
2024-02-22T15:53:47.535Z,97233.84
2024-02-22T15:56:17.437Z,97234.28
2024-02-22T15:58:44.418Z,97239.53
2024-02-22T16:01:17.896Z,97236.50
2024-02-22T16:03:47.577Z,97219.00
2024-02-22T16:06:14.621Z,97240.28
2024-02-22T16:08:41.796Z,97220.44
2024-02-22T16:11:09.851Z,97220.13
2024-02-22T16:13:40.596Z,97229.44
2024-02-22T16:16:08.005Z,97230.31
2024-02-22T16:18:36.692Z,97230.88
2024-02-22T16:21:05.074Z,97218.13
2024-02-22T16:23:33.677Z,97217.53
2024-02-22T16:26:00.596Z,97218.75
2024-02-22T16:28:30.343Z,97220.69
2024-02-22T16:30:59.532Z,97218.88
2024-02-22T16:33:28.071Z,97214.78
2024-02-22T16:35:55.096Z,97220.69
2024-02-22T16:38:22.176Z,97211.66
2024-02-22T16:40:49.027Z,97220.88
2024-02-22T16:43:15.831Z,97217.16
2024-02-22T16:45:42.598Z,97210.34
2024-02-22T16:48:09.904Z,97205.59
2024-02-22T16:50:36.787Z,97206.38
2024-02-22T16:53:03.722Z,97208.38
2024-02-22T16:55:30.484Z,97222.88
2024-02-22T16:57:57.291Z,97226.19
2024-02-22T17:00:24.213Z,97214.94
2024-02-22T17:02:51.525Z,97206.75
2024-02-22T17:05:19.818Z,97186.56
2024-02-22T17:07:48.006Z,97199.94
2024-02-22T17:10:19.771Z,97200.81
2024-02-22T17:12:47.271Z,97199.50
2024-02-22T17:15:14.343Z,97191.78
2024-02-22T17:17:41.146Z,97196.72
2024-02-22T17:20:08.543Z,97194.56
2024-02-22T17:22:35.904Z,97188.28
2024-02-22T17:25:02.996Z,97194.31
2024-02-22T17:27:30.314Z,97192.66
2024-02-22T17:29:57.259Z,97183.84
2024-02-22T17:32:24.188Z,97181.16
2024-02-22T17:34:51.086Z,97186.94
2024-02-22T17:37:18.141Z,97180.22
2024-02-22T17:39:45.417Z,97165.47
2024-02-22T17:42:12.228Z,97168.25
2024-02-22T17:44:39.237Z,97174.28
2024-02-22T17:47:06.240Z,97167.78
2024-02-22T17:49:32.938Z,97173.22
2024-02-22T17:52:01.906Z,97167.38
2024-02-22T17:54:28.847Z,97165.09
2024-02-22T17:56:55.950Z,97154.44
2024-02-22T17:59:22.622Z,97161.22
2024-02-22T18:01:51.073Z,97162.91
2024-02-22T18:04:24.212Z,97162.09
2024-02-22T18:06:53.239Z,97154.53
2024-02-22T18:09:22.099Z,97160.84
2024-02-22T18:11:49.400Z,97155.00
2024-02-22T18:14:16.698Z,97154.16
2024-02-22T18:16:44.606Z,97153.53
2024-02-22T18:19:11.756Z,97156.66
2024-02-22T18:21:38.835Z,97147.38
2024-02-22T18:24:05.748Z,97145.38
2024-02-22T18:26:34.328Z,97149.78
2024-02-22T18:29:01.340Z,97146.66
2024-02-22T18:31:28.124Z,97151.56
2024-02-22T18:33:54.922Z,97149.94
2024-02-22T18:36:21.802Z,97136.22
2024-02-22T18:38:48.501Z,97130.44
2024-02-22T18:41:16.108Z,97125.41
2024-02-22T18:43:43.403Z,97116.00
2024-02-22T18:46:10.505Z,97114.41
2024-02-22T18:48:38.461Z,97096.75
2024-02-22T18:51:05.440Z,97100.09
2024-02-22T18:53:32.314Z,97101.84
2024-02-22T18:56:00.354Z,97096.94
2024-02-22T18:58:27.200Z,97094.00
2024-02-22T19:00:54.667Z,97090.03
2024-02-22T19:03:21.703Z,97076.28
2024-02-22T19:05:50.188Z,97076.41
2024-02-22T19:08:17.541Z,97076.91
2024-02-22T19:10:44.615Z,97070.06
2024-02-22T19:13:11.516Z,97068.59
2024-02-22T19:15:38.320Z,97086.16
2024-02-22T19:18:06.801Z,97077.25
2024-02-22T19:20:33.990Z,97076.16
2024-02-22T19:23:00.813Z,97067.25
2024-02-22T19:25:28.327Z,97072.03
2024-02-22T19:27:55.079Z,97064.81
2024-02-22T19:30:21.852Z,97067.34
2024-02-22T19:32:49.016Z,97079.13
2024-02-22T19:35:20.197Z,97068.34
2024-02-22T19:37:48.815Z,97071.69
2024-02-22T19:40:16.012Z,97080.06
2024-02-22T19:42:42.897Z,97071.59
2024-02-22T19:45:10.189Z,97080.59
2024-02-22T19:47:37.149Z,97080.50
2024-02-22T19:50:05.092Z,97089.31
2024-02-22T19:52:31.984Z,97085.94
2024-02-22T19:54:59.802Z,97085.88
2024-02-22T19:57:31.285Z,97070.97
2024-02-22T19:59:58.332Z,97075.25
2024-02-22T20:02:27.921Z,97069.28
2024-02-22T20:04:56.259Z,97070.31
2024-02-22T20:07:24.348Z,97059.00
2024-02-22T20:09:51.591Z,97064.19
2024-02-22T20:12:19.756Z,97077.75
2024-02-22T20:14:47.960Z,97048.50
2024-02-22T20:17:15.738Z,97069.69
2024-02-22T20:19:46.343Z,97065.06
2024-02-22T20:22:13.635Z,97061.72
2024-02-22T20:24:41.066Z,97056.84
2024-02-22T20:27:08.133Z,97045.44
2024-02-22T20:29:35.053Z,97046.22
2024-02-22T20:32:06.138Z,97042.72
2024-02-22T20:34:33.566Z,97041.41
2024-02-22T20:37:01.044Z,97039.63
2024-02-22T20:39:28.148Z,97036.28
2024-02-22T20:41:55.175Z,97030.72
2024-02-22T20:44:23.070Z,97031.84
2024-02-22T20:46:50.631Z,97029.53
2024-02-22T20:49:17.860Z,97030.59
2024-02-22T20:51:49.601Z,97030.59
2024-02-22T20:54:16.663Z,97022.44
2024-02-22T20:56:43.454Z,97018.69
2024-02-22T20:59:13.662Z,97026.16
2024-02-22T21:01:40.588Z,97017.03
2024-02-22T21:04:08.322Z,97019.91
2024-02-22T21:06:35.183Z,97015.69
2024-02-22T21:09:04.921Z,97017.94
2024-02-22T21:11:32.014Z,97011.78
2024-02-22T21:13:58.979Z,97005.94
2024-02-22T21:16:27.610Z,96998.63
2024-02-22T21:18:54.857Z,97010.69
2024-02-22T21:21:21.747Z,97011.88
2024-02-22T21:23:48.816Z,97012.25
2024-02-22T21:26:15.787Z,97004.16
2024-02-22T21:28:42.995Z,97011.34
2024-02-22T21:31:12.037Z,97006.25
2024-02-22T21:33:40.655Z,96997.94
2024-02-22T21:36:08.680Z,97002.16
2024-02-22T21:38:36.143Z,97001.22
2024-02-22T21:41:07.704Z,97003.13
2024-02-22T21:43:37.632Z,96996.34
2024-02-22T21:46:06.021Z,96990.75
2024-02-22T21:48:34.564Z,96992.25
2024-02-22T21:51:09.012Z,96995.28
2024-02-22T21:53:36.061Z,96986.72
2024-02-22T21:56:03.055Z,96985.13
2024-02-22T21:58:31.171Z,96982.16
2024-02-22T22:00:57.948Z,96968.75
2024-02-22T22:03:24.771Z,96962.97
2024-02-22T22:05:51.573Z,96962.22
2024-02-22T22:08:19.025Z,96939.03
2024-02-22T22:10:46.025Z,96940.13
2024-02-22T22:13:12.917Z,96960.75
2024-02-22T22:15:39.739Z,96959.72
2024-02-22T22:18:06.752Z,96981.91
2024-02-22T22:20:33.381Z,96977.09
2024-02-22T22:23:00.286Z,96985.72
2024-02-22T22:25:27.090Z,96976.94
2024-02-22T22:27:53.837Z,97001.84
2024-02-22T22:30:20.589Z,96979.06
2024-02-22T22:32:47.444Z,96973.69
2024-02-22T22:35:14.466Z,96983.41
2024-02-22T22:37:41.204Z,96976.78
2024-02-22T22:40:08.409Z,96971.78
2024-02-22T22:42:35.130Z,96974.47
2024-02-22T22:45:01.931Z,96958.06
2024-02-22T22:47:28.752Z,96969.06
2024-02-22T22:49:55.656Z,96975.09
2024-02-22T22:52:22.459Z,96968.56
2024-02-22T22:54:49.202Z,96979.06
2024-02-22T22:57:16.057Z,96979.31
2024-02-22T22:59:44.244Z,96975.16
2024-02-22T23:02:11.210Z,96977.25
2024-02-22T23:04:38.581Z,96972.13
2024-02-22T23:07:05.395Z,96976.66
2024-02-22T23:09:32.140Z,96971.66
2024-02-22T23:11:59.028Z,96968.28
2024-02-22T23:14:27.455Z,96977.41
2024-02-22T23:16:54.314Z,96970.47
2024-02-22T23:19:21.087Z,96967.47
2024-02-22T23:21:47.884Z,96967.25
2024-02-22T23:24:14.741Z,96964.09
2024-02-22T23:26:41.547Z,96968.78
2024-02-22T23:29:09.399Z,96969.94
2024-02-22T23:31:36.614Z,96974.88
2024-02-22T23:34:03.723Z,96970.47
2024-02-22T23:36:30.796Z,96964.44
2024-02-22T23:38:57.673Z,96970.63
2024-02-22T23:41:29.412Z,96958.88
2024-02-22T23:44:00.225Z,96964.81
2024-02-22T23:46:27.104Z,96953.94
2024-02-22T23:48:54.644Z,96978.34
2024-02-22T23:51:21.525Z,96936.31
2024-02-22T23:53:48.380Z,96936.25
2024-02-22T23:56:15.803Z,96936.97
2024-02-22T23:58:42.743Z,96934.44
